sensor_id;sensor_type;location;lat;lon;timestamp;P1;durP1;ratioP1;P2;durP2;ratioP2
22070;SDS011;11200;51.488;6.668;2023-03-14T04:46:13;3.30;;;1.38;;
22070;SDS011;11200;51.488;6.668;2023-03-14T04:48:39;3.85;;;1.20;;
22070;SDS011;11200;51.488;6.668;2023-03-14T04:51:05;3.13;;;1.20;;
22070;SDS011;11200;51.488;6.668;2023-03-14T04:53:31;4.45;;;1.23;;
22070;SDS011;11200;51.488;6.668;2023-03-14T04:55:56;3.47;;;1.30;;
22070;SDS011;11200;51.488;6.668;2023-03-14T04:58:22;2.70;;;1.25;;
22070;SDS011;11200;51.488;6.668;2023-03-14T05:00:49;2.80;;;1.30;;
22070;SDS011;11200;51.488;6.668;2023-03-14T05:03:15;5.28;;;1.20;;
22070;SDS011;11200;51.488;6.668;2023-03-14T05:05:42;2.80;;;0.85;;
22070;SDS011;11200;51.488;6.668;2023-03-14T05:08:08;3.13;;;1.25;;
22070;SDS011;11200;51.488;6.668;2023-03-14T05:10:34;2.75;;;1.17;;
22070;SDS011;11200;51.488;6.668;2023-03-14T05:12:59;1.52;;;0.90;;
22070;SDS011;11200;51.488;6.668;2023-03-14T05:15:34;2.38;;;1.15;;
22070;SDS011;11200;51.488;6.668;2023-03-14T05:18:00;1.83;;;0.80;;
22070;SDS011;11200;51.488;6.668;2023-03-14T05:20:25;3.25;;;1.17;;
22070;SDS011;11200;51.488;6.668;2023-03-14T05:22:51;3.92;;;1.17;;
22070;SDS011;11200;51.488;6.668;2023-03-14T05:25:17;1.50;;;0.90;;
22070;SDS011;11200;51.488;6.668;2023-03-14T05:27:43;3.40;;;1.10;;
22070;SDS011;11200;51.488;6.668;2023-03-14T05:30:09;3.55;;;0.80;;
22070;SDS011;11200;51.488;6.668;2023-03-14T05:32:35;2.50;;;1.15;;
22070;SDS011;11200;51.488;6.668;2023-03-14T05:35:01;3.80;;;1.00;;
22070;SDS011;11200;51.488;6.668;2023-03-14T05:37:27;1.85;;;1.02;;
22070;SDS011;11200;51.488;6.668;2023-03-14T05:39:52;1.80;;;0.80;;
22070;SDS011;11200;51.488;6.668;2023-03-14T05:42:18;2.55;;;1.02;;
22070;SDS011;11200;51.488;6.668;2023-03-14T05:44:44;2.03;;;1.00;;
22070;SDS011;11200;51.488;6.668;2023-03-14T05:47:10;1.67;;;0.98;;
22070;SDS011;11200;51.488;6.668;2023-03-14T05:49:35;2.42;;;0.80;;
22070;SDS011;11200;51.488;6.668;2023-03-14T05:52:02;2.00;;;1.00;;
22070;SDS011;11200;51.488;6.668;2023-03-14T05:54:28;3.17;;;0.90;;
22070;SDS011;11200;51.488;6.668;2023-03-14T05:56:53;3.17;;;0.93;;
22070;SDS011;11200;51.488;6.668;2023-03-14T05:59:19;2.25;;;0.90;;
22070;SDS011;11200;51.488;6.668;2023-03-14T06:01:45;1.80;;;0.80;;
22070;SDS011;11200;51.488;6.668;2023-03-14T06:04:11;1.30;;;0.77;;
22070;SDS011;11200;51.488;6.668;2023-03-14T06:06:36;2.65;;;1.00;;
22070;SDS011;11200;51.488;6.668;2023-03-14T06:09:02;1.98;;;0.80;;
22070;SDS011;11200;51.488;6.668;2023-03-14T06:11:28;1.85;;;0.90;;
22070;SDS011;11200;51.488;6.668;2023-03-14T06:13:53;1.65;;;0.95;;
22070;SDS011;11200;51.488;6.668;2023-03-14T06:16:19;1.33;;;0.90;;
22070;SDS011;11200;51.488;6.668;2023-03-14T06:18:45;1.70;;;0.95;;
22070;SDS011;11200;51.488;6.668;2023-03-14T06:21:11;3.28;;;1.10;;
22070;SDS011;11200;51.488;6.668;2023-03-14T06:23:37;2.75;;;0.90;;
22070;SDS011;11200;51.488;6.668;2023-03-14T06:26:03;1.63;;;0.90;;
22070;SDS011;11200;51.488;6.668;2023-03-14T06:28:29;1.88;;;0.98;;
22070;SDS011;11200;51.488;6.668;2023-03-14T06:30:55;1.83;;;0.95;;
22070;SDS011;11200;51.488;6.668;2023-03-14T06:33:20;1.70;;;0.80;;
22070;SDS011;11200;51.488;6.668;2023-03-14T06:35:46;2.33;;;0.80;;
22070;SDS011;11200;51.488;6.668;2023-03-14T06:38:11;2.60;;;0.90;;
22070;SDS011;11200;51.488;6.668;2023-03-14T06:40:40;0.98;;;0.70;;
22070;SDS011;11200;51.488;6.668;2023-03-14T06:43:06;1.83;;;0.80;;
22070;SDS011;11200;51.488;6.668;2023-03-14T06:45:31;1.60;;;0.90;;
22070;SDS011;11200;51.488;6.668;2023-03-14T06:47:57;1.75;;;0.80;;
22070;SDS011;11200;51.488;6.668;2023-03-14T06:50:22;1.20;;;0.75;;
22070;SDS011;11200;51.488;6.668;2023-03-14T06:52:48;1.27;;;0.80;;
22070;SDS011;11200;51.488;6.668;2023-03-14T06:55:14;1.80;;;0.90;;
22070;SDS011;11200;51.488;6.668;2023-03-14T06:57:40;1.92;;;0.70;;
22070;SDS011;11200;51.488;6.668;2023-03-14T07:00:06;1.52;;;0.80;;
22070;SDS011;11200;51.488;6.668;2023-03-14T07:02:33;1.67;;;0.82;;
22070;SDS011;11200;51.488;6.668;2023-03-14T07:04:58;1.23;;;0.70;;
22070;SDS011;11200;51.488;6.668;2023-03-14T07:07:25;1.10;;;0.70;;
22070;SDS011;11200;51.488;6.668;2023-03-14T07:09:51;1.75;;;0.80;;
22070;SDS011;11200;51.488;6.668;2023-03-14T07:12:17;1.45;;;0.82;;
22070;SDS011;11200;51.488;6.668;2023-03-14T07:14:43;0.90;;;0.70;;
22070;SDS011;11200;51.488;6.668;2023-03-14T07:17:08;1.67;;;0.60;;
22070;SDS011;11200;51.488;6.668;2023-03-14T07:19:34;1.10;;;0.80;;
22070;SDS011;11200;51.488;6.668;2023-03-14T07:21:59;1.73;;;0.90;;
22070;SDS011;11200;51.488;6.668;2023-03-14T07:24:25;0.80;;;0.60;;
22070;SDS011;11200;51.488;6.668;2023-03-14T07:26:51;1.33;;;0.65;;
22070;SDS011;11200;51.488;6.668;2023-03-14T07:29:17;1.83;;;0.80;;
22070;SDS011;11200;51.488;6.668;2023-03-14T07:31:43;1.75;;;0.73;;
22070;SDS011;11200;51.488;6.668;2023-03-14T07:34:08;1.55;;;0.73;;
22070;SDS011;11200;51.488;6.668;2023-03-14T07:36:34;1.48;;;0.85;;
22070;SDS011;11200;51.488;6.668;2023-03-14T07:39:00;1.70;;;0.85;;
22070;SDS011;11200;51.488;6.668;2023-03-14T07:41:26;1.02;;;0.90;;
22070;SDS011;11200;51.488;6.668;2023-03-14T07:43:52;1.15;;;0.77;;
22070;SDS011;11200;51.488;6.668;2023-03-14T07:46:17;1.58;;;0.82;;
22070;SDS011;11200;51.488;6.668;2023-03-14T07:48:43;1.55;;;0.80;;
22070;SDS011;11200;51.488;6.668;2023-03-14T07:51:09;0.90;;;0.65;;
22070;SDS011;11200;51.488;6.668;2023-03-14T07:53:34;1.00;;;0.80;;
22070;SDS011;11200;51.488;6.668;2023-03-14T07:56:00;1.65;;;0.90;;
22070;SDS011;11200;51.488;6.668;2023-03-14T07:58:25;1.25;;;0.80;;
22070;SDS011;11200;51.488;6.668;2023-03-14T08:00:51;0.88;;;0.80;;
22070;SDS011;11200;51.488;6.668;2023-03-14T08:03:17;0.80;;;0.77;;
22070;SDS011;11200;51.488;6.668;2023-03-14T08:05:44;1.20;;;0.80;;
22070;SDS011;11200;51.488;6.668;2023-03-14T08:08:13;2.65;;;0.90;;
22070;SDS011;11200;51.488;6.668;2023-03-14T08:10:38;1.52;;;0.80;;
22070;SDS011;11200;51.488;6.668;2023-03-14T08:13:08;1.60;;;0.70;;
22070;SDS011;11200;51.488;6.668;2023-03-14T08:15:34;2.65;;;1.00;;
22070;SDS011;11200;51.488;6.668;2023-03-14T08:17:59;0.85;;;0.80;;
22070;SDS011;11200;51.488;6.668;2023-03-14T08:20:26;1.27;;;0.80;;
22070;SDS011;11200;51.488;6.668;2023-03-14T08:22:54;0.88;;;0.80;;
22070;SDS011;11200;51.488;6.668;2023-03-14T08:25:22;1.95;;;1.00;;
22070;SDS011;11200;51.488;6.668;2023-03-14T08:27:47;1.15;;;0.80;;
22070;SDS011;11200;51.488;6.668;2023-03-14T08:30:14;1.02;;;0.80;;
22070;SDS011;11200;51.488;6.668;2023-03-14T08:32:40;1.40;;;0.80;;
22070;SDS011;11200;51.488;6.668;2023-03-14T08:35:06;1.25;;;0.90;;
22070;SDS011;11200;51.488;6.668;2023-03-14T08:37:33;1.33;;;0.80;;
22070;SDS011;11200;51.488;6.668;2023-03-14T08:40:00;1.40;;;0.93;;
22070;SDS011;11200;51.488;6.668;2023-03-14T08:42:26;1.08;;;0.75;;
22070;SDS011;11200;51.488;6.668;2023-03-14T08:44:52;1.45;;;1.00;;
22070;SDS011;11200;51.488;6.668;2023-03-14T08:47:18;1.55;;;0.80;;
22070;SDS011;11200;51.488;6.668;2023-03-14T08:49:43;0.70;;;0.70;;
22070;SDS011;11200;51.488;6.668;2023-03-14T08:52:09;1.13;;;0.90;;
22070;SDS011;11200;51.488;6.668;2023-03-14T08:54:35;1.52;;;0.95;;
22070;SDS011;11200;51.488;6.668;2023-03-14T08:57:00;1.02;;;0.90;;
22070;SDS011;11200;51.488;6.668;2023-03-14T08:59:26;0.85;;;0.70;;
22070;SDS011;11200;51.488;6.668;2023-03-14T09:01:52;1.05;;;0.95;;
22070;SDS011;11200;51.488;6.668;2023-03-14T09:04:18;1.30;;;0.90;;
22070;SDS011;11200;51.488;6.668;2023-03-14T09:06:44;1.23;;;0.88;;
22070;SDS011;11200;51.488;6.668;2023-03-14T09:09:10;0.80;;;0.80;;
22070;SDS011;11200;51.488;6.668;2023-03-14T09:11:35;0.75;;;0.68;;
22070;SDS011;11200;51.488;6.668;2023-03-14T09:14:01;0.90;;;0.57;;
22070;SDS011;11200;51.488;6.668;2023-03-14T09:16:27;1.48;;;0.68;;
22070;SDS011;11200;51.488;6.668;2023-03-14T09:18:52;1.10;;;0.90;;
22070;SDS011;11200;51.488;6.668;2023-03-14T09:21:19;1.00;;;0.70;;
22070;SDS011;11200;51.488;6.668;2023-03-14T09:23:46;1.70;;;0.90;;
22070;SDS011;11200;51.488;6.668;2023-03-14T09:26:12;1.00;;;0.77;;
22070;SDS011;11200;51.488;6.668;2023-03-14T09:28:37;1.08;;;0.60;;
22070;SDS011;11200;51.488;6.668;2023-03-14T09:31:07;1.40;;;0.70;;
22070;SDS011;11200;51.488;6.668;2023-03-14T09:33:34;1.20;;;0.68;;
22070;SDS011;11200;51.488;6.668;2023-03-14T09:36:00;0.73;;;0.60;;
22070;SDS011;11200;51.488;6.668;2023-03-14T09:38:26;1.23;;;0.73;;
22070;SDS011;11200;51.488;6.668;2023-03-14T09:40:52;1.08;;;0.70;;
22070;SDS011;11200;51.488;6.668;2023-03-14T09:43:19;1.10;;;0.70;;
22070;SDS011;11200;51.488;6.668;2023-03-14T09:45:47;1.02;;;0.85;;
22070;SDS011;11200;51.488;6.668;2023-03-14T09:48:16;2.42;;;0.75;;
22070;SDS011;11200;51.488;6.668;2023-03-14T09:50:56;1.15;;;0.75;;
22070;SDS011;11200;51.488;6.668;2023-03-14T09:53:24;1.67;;;0.70;;
22070;SDS011;11200;51.488;6.668;2023-03-14T09:55:53;1.30;;;0.93;;
22070;SDS011;11200;51.488;6.668;2023-03-14T09:58:23;3.55;;;1.08;;
22070;SDS011;11200;51.488;6.668;2023-03-14T10:00:49;0.85;;;0.70;;
22070;SDS011;11200;51.488;6.668;2023-03-14T10:03:33;1.13;;;0.80;;
22070;SDS011;11200;51.488;6.668;2023-03-14T10:06:00;0.57;;;0.57;;
22070;SDS011;11200;51.488;6.668;2023-03-14T10:08:26;1.73;;;0.90;;
22070;SDS011;11200;51.488;6.668;2023-03-14T10:10:52;1.02;;;0.80;;
22070;SDS011;11200;51.488;6.668;2023-03-14T10:13:19;0.85;;;0.70;;
22070;SDS011;11200;51.488;6.668;2023-03-14T10:16:00;1.23;;;0.70;;
22070;SDS011;11200;51.488;6.668;2023-03-14T10:18:28;1.00;;;0.85;;
22070;SDS011;11200;51.488;6.668;2023-03-14T10:21:03;0.93;;;0.60;;
22070;SDS011;11200;51.488;6.668;2023-03-14T10:23:32;1.13;;;0.70;;
22070;SDS011;11200;51.488;6.668;2023-03-14T10:28:29;1.15;;;0.80;;
22070;SDS011;11200;51.488;6.668;2023-03-14T10:30:56;0.90;;;0.80;;
22070;SDS011;11200;51.488;6.668;2023-03-14T10:33:23;1.25;;;0.80;;
22070;SDS011;11200;51.488;6.668;2023-03-14T10:36:01;1.65;;;0.60;;
22070;SDS011;11200;51.488;6.668;2023-03-14T10:38:48;1.83;;;0.80;;
22070;SDS011;11200;51.488;6.668;2023-03-14T10:41:23;1.27;;;0.70;;
22070;SDS011;11200;51.488;6.668;2023-03-14T10:43:59;1.42;;;0.90;;
22070;SDS011;11200;51.488;6.668;2023-03-14T10:46:27;2.38;;;0.90;;
22070;SDS011;11200;51.488;6.668;2023-03-14T10:48:55;0.63;;;0.50;;
22070;SDS011;11200;51.488;6.668;2023-03-14T10:51:25;1.23;;;0.80;;
22070;SDS011;11200;51.488;6.668;2023-03-14T10:53:59;1.05;;;0.70;;
22070;SDS011;11200;51.488;6.668;2023-03-14T10:56:27;2.30;;;0.73;;
22070;SDS011;11200;51.488;6.668;2023-03-14T10:58:58;1.48;;;0.75;;
22070;SDS011;11200;51.488;6.668;2023-03-14T11:04:23;1.60;;;0.68;;
22070;SDS011;11200;51.488;6.668;2023-03-14T11:20:47;1.05;;;0.50;;
22070;SDS011;11200;51.488;6.668;2023-03-14T11:23:24;1.80;;;0.95;;
22070;SDS011;11200;51.488;6.668;2023-03-14T11:28:47;2.10;;;0.77;;
22070;SDS011;11200;51.488;6.668;2023-03-14T11:36:51;1.50;;;0.80;;
22070;SDS011;11200;51.488;6.668;2023-03-14T11:39:24;1.63;;;0.70;;
22070;SDS011;11200;51.488;6.668;2023-03-14T11:41:54;2.30;;;0.60;;
22070;SDS011;11200;51.488;6.668;2023-03-14T11:46:56;1.83;;;0.70;;
22070;SDS011;11200;51.488;6.668;2023-03-14T11:52:14;2.10;;;0.70;;
22070;SDS011;11200;51.488;6.668;2023-03-14T11:54:50;2.75;;;0.90;;
22070;SDS011;11200;51.488;6.668;2023-03-14T11:57:18;1.83;;;0.60;;
22070;SDS011;11200;51.488;6.668;2023-03-14T12:02:56;2.22;;;0.85;;
22070;SDS011;11200;51.488;6.668;2023-03-14T12:10:45;3.28;;;1.00;;
22070;SDS011;11200;51.488;6.668;2023-03-14T12:13:12;1.40;;;0.75;;
22070;SDS011;11200;51.488;6.668;2023-03-14T12:15:56;2.63;;;0.90;;
22070;SDS011;11200;51.488;6.668;2023-03-14T12:18:36;1.92;;;0.90;;
22070;SDS011;11200;51.488;6.668;2023-03-14T12:21:04;3.25;;;0.90;;
22070;SDS011;11200;51.488;6.668;2023-03-14T12:23:45;3.45;;;1.13;;
22070;SDS011;11200;51.488;6.668;2023-03-14T12:26:19;2.53;;;0.73;;
22070;SDS011;11200;51.488;6.668;2023-03-14T12:34:04;5.47;;;1.45;;
22070;SDS011;11200;51.488;6.668;2023-03-14T12:42:10;2.13;;;1.00;;
22070;SDS011;11200;51.488;6.668;2023-03-14T12:48:14;4.50;;;1.33;;
22070;SDS011;11200;51.488;6.668;2023-03-14T12:51:00;4.32;;;1.40;;
22070;SDS011;11200;51.488;6.668;2023-03-14T12:56:26;5.85;;;1.65;;
22070;SDS011;11200;51.488;6.668;2023-03-14T13:01:46;5.10;;;1.65;;
22070;SDS011;11200;51.488;6.668;2023-03-14T13:04:18;6.10;;;1.90;;
22070;SDS011;11200;51.488;6.668;2023-03-14T13:06:54;6.25;;;1.98;;
22070;SDS011;11200;51.488;6.668;2023-03-14T13:12:09;4.80;;;1.80;;
22070;SDS011;11200;51.488;6.668;2023-03-14T13:14:40;6.32;;;1.75;;
22070;SDS011;11200;51.488;6.668;2023-03-14T13:17:10;5.00;;;1.77;;
22070;SDS011;11200;51.488;6.668;2023-03-14T13:19:37;8.70;;;1.85;;
22070;SDS011;11200;51.488;6.668;2023-03-14T13:22:05;6.90;;;1.83;;
22070;SDS011;11200;51.488;6.668;2023-03-14T13:24:40;6.22;;;2.20;;
22070;SDS011;11200;51.488;6.668;2023-03-14T13:27:20;6.97;;;2.20;;
22070;SDS011;11200;51.488;6.668;2023-03-14T13:29:48;4.82;;;1.65;;
22070;SDS011;11200;51.488;6.668;2023-03-14T13:32:22;5.78;;;1.67;;
22070;SDS011;11200;51.488;6.668;2023-03-14T13:34:52;8.40;;;1.80;;
22070;SDS011;11200;51.488;6.668;2023-03-14T13:37:22;6.88;;;1.90;;
22070;SDS011;11200;51.488;6.668;2023-03-14T13:39:54;7.43;;;2.03;;
22070;SDS011;11200;51.488;6.668;2023-03-14T13:42:21;6.07;;;2.13;;
22070;SDS011;11200;51.488;6.668;2023-03-14T13:44:51;7.47;;;2.00;;
22070;SDS011;11200;51.488;6.668;2023-03-14T13:47:19;8.57;;;2.38;;
22070;SDS011;11200;51.488;6.668;2023-03-14T13:49:48;4.95;;;1.80;;
22070;SDS011;11200;51.488;6.668;2023-03-14T13:52:27;6.57;;;1.75;;
22070;SDS011;11200;51.488;6.668;2023-03-14T13:54:57;6.97;;;2.22;;
22070;SDS011;11200;51.488;6.668;2023-03-14T13:57:25;5.78;;;1.90;;
22070;SDS011;11200;51.488;6.668;2023-03-14T14:02:32;6.70;;;1.90;;
22070;SDS011;11200;51.488;6.668;2023-03-14T14:05:01;6.72;;;1.95;;
22070;SDS011;11200;51.488;6.668;2023-03-14T14:07:28;6.60;;;2.05;;
22070;SDS011;11200;51.488;6.668;2023-03-14T14:09:54;6.65;;;2.13;;
22070;SDS011;11200;51.488;6.668;2023-03-14T14:14:54;7.95;;;1.80;;
22070;SDS011;11200;51.488;6.668;2023-03-14T14:17:32;6.15;;;2.00;;
22070;SDS011;11200;51.488;6.668;2023-03-14T14:20:28;5.90;;;1.95;;
22070;SDS011;11200;51.488;6.668;2023-03-14T14:23:22;6.38;;;1.60;;
22070;SDS011;11200;51.488;6.668;2023-03-14T14:25:56;5.03;;;1.70;;
22070;SDS011;11200;51.488;6.668;2023-03-14T14:28:33;7.30;;;1.98;;
22070;SDS011;11200;51.488;6.668;2023-03-14T14:33:29;6.45;;;1.80;;
22070;SDS011;11200;51.488;6.668;2023-03-14T14:36:02;6.55;;;1.73;;
22070;SDS011;11200;51.488;6.668;2023-03-14T14:38:28;5.80;;;1.90;;
22070;SDS011;11200;51.488;6.668;2023-03-14T14:41:00;7.20;;;2.03;;
22070;SDS011;11200;51.488;6.668;2023-03-14T14:43:28;4.10;;;1.50;;
22070;SDS011;11200;51.488;6.668;2023-03-14T14:45:55;6.47;;;1.67;;
22070;SDS011;11200;51.488;6.668;2023-03-14T14:48:23;5.88;;;1.42;;
22070;SDS011;11200;51.488;6.668;2023-03-14T14:51:00;5.10;;;2.00;;
22070;SDS011;11200;51.488;6.668;2023-03-14T14:53:37;5.63;;;1.60;;
22070;SDS011;11200;51.488;6.668;2023-03-14T14:56:15;5.90;;;1.60;;
22070;SDS011;11200;51.488;6.668;2023-03-14T14:58:41;6.20;;;2.00;;
22070;SDS011;11200;51.488;6.668;2023-03-14T15:01:17;4.28;;;1.80;;
22070;SDS011;11200;51.488;6.668;2023-03-14T15:03:55;5.88;;;1.55;;
22070;SDS011;11200;51.488;6.668;2023-03-14T15:06:21;6.75;;;1.63;;
22070;SDS011;11200;51.488;6.668;2023-03-14T15:08:52;6.82;;;1.75;;
22070;SDS011;11200;51.488;6.668;2023-03-14T15:11:19;6.90;;;1.75;;
22070;SDS011;11200;51.488;6.668;2023-03-14T15:13:47;4.07;;;1.30;;
22070;SDS011;11200;51.488;6.668;2023-03-14T15:16:15;6.40;;;1.73;;
22070;SDS011;11200;51.488;6.668;2023-03-14T15:18:42;3.45;;;1.40;;
22070;SDS011;11200;51.488;6.668;2023-03-14T15:21:09;3.25;;;1.40;;
22070;SDS011;11200;51.488;6.668;2023-03-14T15:23:38;3.90;;;1.55;;
22070;SDS011;11200;51.488;6.668;2023-03-14T15:26:08;4.57;;;1.50;;
22070;SDS011;11200;51.488;6.668;2023-03-14T15:28:38;5.78;;;1.50;;
22070;SDS011;11200;51.488;6.668;2023-03-14T15:31:04;3.50;;;1.38;;
22070;SDS011;11200;51.488;6.668;2023-03-14T15:33:30;3.97;;;1.35;;
22070;SDS011;11200;51.488;6.668;2023-03-14T15:35:55;3.55;;;1.60;;
22070;SDS011;11200;51.488;6.668;2023-03-14T15:38:22;5.53;;;1.48;;
22070;SDS011;11200;51.488;6.668;2023-03-14T15:40:51;5.65;;;1.58;;
22070;SDS011;11200;51.488;6.668;2023-03-14T15:43:17;6.40;;;1.75;;
22070;SDS011;11200;51.488;6.668;2023-03-14T15:45:44;4.32;;;1.38;;
22070;SDS011;11200;51.488;6.668;2023-03-14T15:48:12;5.07;;;1.58;;
22070;SDS011;11200;51.488;6.668;2023-03-14T15:50:40;4.18;;;1.30;;
22070;SDS011;11200;51.488;6.668;2023-03-14T15:53:06;6.97;;;1.60;;
22070;SDS011;11200;51.488;6.668;2023-03-14T15:55:32;4.57;;;1.48;;
22070;SDS011;11200;51.488;6.668;2023-03-14T15:57:57;4.35;;;1.60;;
22070;SDS011;11200;51.488;6.668;2023-03-14T16:00:24;5.68;;;1.40;;
22070;SDS011;11200;51.488;6.668;2023-03-14T16:02:50;4.88;;;1.30;;
22070;SDS011;11200;51.488;6.668;2023-03-14T16:05:16;2.50;;;1.20;;
22070;SDS011;11200;51.488;6.668;2023-03-14T16:07:44;4.03;;;1.60;;
22070;SDS011;11200;51.488;6.668;2023-03-14T16:10:10;4.18;;;1.45;;
22070;SDS011;11200;51.488;6.668;2023-03-14T16:12:37;3.47;;;1.40;;
22070;SDS011;11200;51.488;6.668;2023-03-14T16:15:03;4.40;;;1.40;;
22070;SDS011;11200;51.488;6.668;2023-03-14T16:17:29;3.38;;;1.40;;
22070;SDS011;11200;51.488;6.668;2023-03-14T16:19:54;4.80;;;1.52;;
22070;SDS011;11200;51.488;6.668;2023-03-14T16:22:20;3.22;;;1.10;;
22070;SDS011;11200;51.488;6.668;2023-03-14T16:24:46;7.32;;;1.73;;
22070;SDS011;11200;51.488;6.668;2023-03-14T16:27:12;4.15;;;1.40;;
22070;SDS011;11200;51.488;6.668;2023-03-14T16:29:37;5.25;;;1.50;;
22070;SDS011;11200;51.488;6.668;2023-03-14T16:32:03;3.92;;;1.10;;
22070;SDS011;11200;51.488;6.668;2023-03-14T16:34:29;5.10;;;1.80;;
22070;SDS011;11200;51.488;6.668;2023-03-14T16:36:55;4.60;;;1.45;;
22070;SDS011;11200;51.488;6.668;2023-03-14T16:39:21;4.90;;;1.70;;
22070;SDS011;11200;51.488;6.668;2023-03-14T16:41:46;3.95;;;1.40;;
22070;SDS011;11200;51.488;6.668;2023-03-14T16:44:12;3.65;;;1.50;;
22070;SDS011;11200;51.488;6.668;2023-03-14T16:46:38;4.85;;;1.42;;
22070;SDS011;11200;51.488;6.668;2023-03-14T16:49:04;4.53;;;1.40;;
22070;SDS011;11200;51.488;6.668;2023-03-14T16:51:30;5.75;;;1.63;;
22070;SDS011;11200;51.488;6.668;2023-03-14T16:53:56;3.70;;;1.38;;
22070;SDS011;11200;51.488;6.668;2023-03-14T16:56:22;3.40;;;1.25;;
22070;SDS011;11200;51.488;6.668;2023-03-14T16:58:48;7.00;;;1.40;;
22070;SDS011;11200;51.488;6.668;2023-03-14T17:01:14;4.53;;;1.38;;
22070;SDS011;11200;51.488;6.668;2023-03-14T17:03:43;4.60;;;1.27;;
22070;SDS011;11200;51.488;6.668;2023-03-14T17:06:17;4.45;;;1.30;;
22070;SDS011;11200;51.488;6.668;2023-03-14T17:08:48;4.70;;;1.27;;
22070;SDS011;11200;51.488;6.668;2023-03-14T17:11:14;4.15;;;1.58;;
22070;SDS011;11200;51.488;6.668;2023-03-14T17:13:40;4.05;;;1.42;;
22070;SDS011;11200;51.488;6.668;2023-03-14T17:16:06;4.68;;;1.23;;
22070;SDS011;11200;51.488;6.668;2023-03-14T17:18:32;5.57;;;1.60;;
22070;SDS011;11200;51.488;6.668;2023-03-14T17:20:59;3.55;;;1.23;;
22070;SDS011;11200;51.488;6.668;2023-03-14T17:23:26;4.68;;;1.30;;
22070;SDS011;11200;51.488;6.668;2023-03-14T17:25:52;4.32;;;1.30;;
22070;SDS011;11200;51.488;6.668;2023-03-14T17:28:19;3.80;;;1.52;;
22070;SDS011;11200;51.488;6.668;2023-03-14T17:30:49;4.38;;;1.42;;
22070;SDS011;11200;51.488;6.668;2023-03-14T17:33:15;5.47;;;1.55;;
22070;SDS011;11200;51.488;6.668;2023-03-14T17:35:41;1.88;;;1.17;;
22070;SDS011;11200;51.488;6.668;2023-03-14T17:38:08;4.57;;;1.50;;
22070;SDS011;11200;51.488;6.668;2023-03-14T17:40:33;3.40;;;1.33;;
22070;SDS011;11200;51.488;6.668;2023-03-14T17:42:59;2.55;;;1.25;;
22070;SDS011;11200;51.488;6.668;2023-03-14T17:45:25;5.07;;;1.50;;
22070;SDS011;11200;51.488;6.668;2023-03-14T17:47:50;4.95;;;1.42;;
22070;SDS011;11200;51.488;6.668;2023-03-14T17:50:16;5.18;;;1.60;;
22070;SDS011;11200;51.488;6.668;2023-03-14T17:52:42;4.55;;;1.42;;
22070;SDS011;11200;51.488;6.668;2023-03-14T17:55:07;3.95;;;1.20;;
22070;SDS011;11200;51.488;6.668;2023-03-14T17:57:37;3.40;;;1.30;;
22070;SDS011;11200;51.488;6.668;2023-03-14T18:00:04;4.55;;;1.75;;
22070;SDS011;11200;51.488;6.668;2023-03-14T18:02:33;4.80;;;1.40;;
22070;SDS011;11200;51.488;6.668;2023-03-14T18:04:59;5.70;;;1.30;;
22070;SDS011;11200;51.488;6.668;2023-03-14T18:07:25;3.20;;;1.30;;
22070;SDS011;11200;51.488;6.668;2023-03-14T18:09:51;4.03;;;1.42;;
22070;SDS011;11200;51.488;6.668;2023-03-14T18:12:17;3.85;;;1.25;;
22070;SDS011;11200;51.488;6.668;2023-03-14T18:14:42;2.88;;;1.25;;
22070;SDS011;11200;51.488;6.668;2023-03-14T18:17:09;3.63;;;1.42;;
22070;SDS011;11200;51.488;6.668;2023-03-14T18:19:37;4.68;;;1.30;;
22070;SDS011;11200;51.488;6.668;2023-03-14T18:22:04;2.78;;;1.20;;
22070;SDS011;11200;51.488;6.668;2023-03-14T18:24:30;3.17;;;1.30;;
22070;SDS011;11200;51.488;6.668;2023-03-14T18:26:56;5.18;;;1.30;;
22070;SDS011;11200;51.488;6.668;2023-03-14T18:29:21;4.65;;;1.33;;
22070;SDS011;11200;51.488;6.668;2023-03-14T18:31:47;3.60;;;1.60;;
22070;SDS011;11200;51.488;6.668;2023-03-14T18:34:13;3.28;;;1.10;;
22070;SDS011;11200;51.488;6.668;2023-03-14T18:36:39;4.68;;;1.27;;
22070;SDS011;11200;51.488;6.668;2023-03-14T18:39:05;4.28;;;1.30;;
22070;SDS011;11200;51.488;6.668;2023-03-14T18:41:32;3.05;;;1.45;;
22070;SDS011;11200;51.488;6.668;2023-03-14T18:43:59;2.22;;;1.17;;
22070;SDS011;11200;51.488;6.668;2023-03-14T18:46:25;3.50;;;1.40;;
22070;SDS011;11200;51.488;6.668;2023-03-14T18:48:52;4.60;;;1.20;;
22070;SDS011;11200;51.488;6.668;2023-03-14T18:51:25;3.28;;;1.10;;
22070;SDS011;11200;51.488;6.668;2023-03-14T18:53:53;2.97;;;1.20;;
22070;SDS011;11200;51.488;6.668;2023-03-14T18:56:20;3.40;;;1.25;;
22070;SDS011;11200;51.488;6.668;2023-03-14T18:58:46;3.28;;;1.40;;
22070;SDS011;11200;51.488;6.668;2023-03-14T19:01:12;4.20;;;1.30;;
22070;SDS011;11200;51.488;6.668;2023-03-14T19:03:38;4.80;;;1.55;;
22070;SDS011;11200;51.488;6.668;2023-03-14T19:06:05;3.67;;;1.27;;
22070;SDS011;11200;51.488;6.668;2023-03-14T19:08:33;5.40;;;1.50;;
22070;SDS011;11200;51.488;6.668;2023-03-14T19:11:00;3.80;;;1.30;;
22070;SDS011;11200;51.488;6.668;2023-03-14T19:13:29;3.83;;;1.25;;
22070;SDS011;11200;51.488;6.668;2023-03-14T19:15:56;2.53;;;1.30;;
22070;SDS011;11200;51.488;6.668;2023-03-14T19:18:24;4.95;;;1.40;;
22070;SDS011;11200;51.488;6.668;2023-03-14T19:21:00;5.95;;;1.50;;
22070;SDS011;11200;51.488;6.668;2023-03-14T19:23:28;3.92;;;1.40;;
22070;SDS011;11200;51.488;6.668;2023-03-14T19:25:54;2.60;;;1.50;;
22070;SDS011;11200;51.488;6.668;2023-03-14T19:28:20;2.72;;;1.30;;
22070;SDS011;11200;51.488;6.668;2023-03-14T19:30:47;6.32;;;1.40;;
22070;SDS011;11200;51.488;6.668;2023-03-14T19:33:17;4.35;;;1.55;;
22070;SDS011;11200;51.488;6.668;2023-03-14T19:35:44;3.83;;;1.40;;
22070;SDS011;11200;51.488;6.668;2023-03-14T19:38:10;3.42;;;1.40;;
22070;SDS011;11200;51.488;6.668;2023-03-14T19:40:37;4.97;;;1.40;;
22070;SDS011;11200;51.488;6.668;2023-03-14T19:43:04;4.03;;;1.40;;
22070;SDS011;11200;51.488;6.668;2023-03-14T19:45:30;4.30;;;1.73;;
22070;SDS011;11200;51.488;6.668;2023-03-14T19:47:57;5.38;;;1.60;;
22070;SDS011;11200;51.488;6.668;2023-03-14T19:50:27;3.45;;;1.20;;
22070;SDS011;11200;51.488;6.668;2023-03-14T19:52:53;3.40;;;1.33;;
22070;SDS011;11200;51.488;6.668;2023-03-14T19:55:20;3.65;;;1.52;;
22070;SDS011;11200;51.488;6.668;2023-03-14T19:57:47;3.75;;;1.55;;
22070;SDS011;11200;51.488;6.668;2023-03-14T20:00:13;3.33;;;1.40;;
22070;SDS011;11200;51.488;6.668;2023-03-14T20:02:40;4.55;;;1.48;;
22070;SDS011;11200;51.488;6.668;2023-03-14T20:05:07;3.83;;;1.25;;
22070;SDS011;11200;51.488;6.668;2023-03-14T20:07:33;3.28;;;1.50;;
22070;SDS011;11200;51.488;6.668;2023-03-14T20:09:58;4.70;;;1.80;;
22070;SDS011;11200;51.488;6.668;2023-03-14T20:12:24;3.45;;;1.70;;
22070;SDS011;11200;51.488;6.668;2023-03-14T20:14:49;2.92;;;1.33;;
22070;SDS011;11200;51.488;6.668;2023-03-14T20:17:15;2.88;;;1.42;;
22070;SDS011;11200;51.488;6.668;2023-03-14T20:19:41;4.45;;;1.55;;
22070;SDS011;11200;51.488;6.668;2023-03-14T20:22:07;2.38;;;1.20;;
22070;SDS011;11200;51.488;6.668;2023-03-14T20:24:33;3.95;;;1.65;;
22070;SDS011;11200;51.488;6.668;2023-03-14T20:26:59;3.05;;;1.50;;
22070;SDS011;11200;51.488;6.668;2023-03-14T20:29:26;5.13;;;1.48;;
22070;SDS011;11200;51.488;6.668;2023-03-14T20:31:52;5.32;;;1.48;;
22070;SDS011;11200;51.488;6.668;2023-03-14T20:34:17;5.68;;;1.55;;
22070;SDS011;11200;51.488;6.668;2023-03-14T20:36:43;4.63;;;1.60;;
22070;SDS011;11200;51.488;6.668;2023-03-14T20:39:11;3.38;;;1.30;;
22070;SDS011;11200;51.488;6.668;2023-03-14T20:41:38;4.53;;;1.55;;
22070;SDS011;11200;51.488;6.668;2023-03-14T20:44:06;3.72;;;1.65;;
22070;SDS011;11200;51.488;6.668;2023-03-14T20:46:35;3.97;;;1.70;;
22070;SDS011;11200;51.488;6.668;2023-03-14T20:49:01;2.72;;;1.27;;